sensor_id;sensor_type;location;lat;lon;timestamp;P1;durP1;ratioP1;P2;durP2;ratioP2
28844;SDS011;15976;47.938;7.758;2023-10-08T11:51:12;18.55;;;5.15;;
28844;SDS011;15976;47.938;7.758;2023-10-08T11:53:44;14.25;;;4.78;;
28844;SDS011;15976;47.938;7.758;2023-10-08T11:56:13;17.63;;;5.07;;
28844;SDS011;15976;47.938;7.758;2023-10-08T11:58:43;17.00;;;5.55;;
28844;SDS011;15976;47.938;7.758;2023-10-08T12:01:11;13.63;;;4.75;;
28844;SDS011;15976;47.938;7.758;2023-10-08T12:03:43;17.27;;;6.03;;
28844;SDS011;15976;47.938;7.758;2023-10-08T12:06:17;17.70;;;5.18;;
28844;SDS011;15976;47.938;7.758;2023-10-08T12:08:48;22.27;;;5.60;;
28844;SDS011;15976;47.938;7.758;2023-10-08T12:11:20;16.58;;;5.47;;
28844;SDS011;15976;47.938;7.758;2023-10-08T12:13:50;21.25;;;5.78;;
28844;SDS011;15976;47.938;7.758;2023-10-08T12:16:19;20.88;;;5.72;;
28844;SDS011;15976;47.938;7.758;2023-10-08T12:18:50;21.42;;;4.95;;
28844;SDS011;15976;47.938;7.758;2023-10-08T12:21:26;25.50;;;6.03;;
28844;SDS011;15976;47.938;7.758;2023-10-08T12:24:00;25.13;;;5.47;;
28844;SDS011;15976;47.938;7.758;2023-10-08T12:26:34;23.55;;;5.57;;
28844;SDS011;15976;47.938;7.758;2023-10-08T12:29:04;19.23;;;5.60;;
28844;SDS011;15976;47.938;7.758;2023-10-08T12:31:34;17.83;;;5.63;;
28844;SDS011;15976;47.938;7.758;2023-10-08T12:34:03;20.10;;;6.03;;
28844;SDS011;15976;47.938;7.758;2023-10-08T12:36:33;25.85;;;5.60;;
28844;SDS011;15976;47.938;7.758;2023-10-08T12:39:04;22.73;;;5.18;;
28844;SDS011;15976;47.938;7.758;2023-10-08T12:41:42;19.67;;;5.30;;
28844;SDS011;15976;47.938;7.758;2023-10-08T12:44:13;27.70;;;5.82;;
28844;SDS011;15976;47.938;7.758;2023-10-08T12:46:42;26.63;;;6.18;;
28844;SDS011;15976;47.938;7.758;2023-10-08T12:49:10;23.77;;;5.63;;
28844;SDS011;15976;47.938;7.758;2023-10-08T12:51:37;28.50;;;5.57;;
28844;SDS011;15976;47.938;7.758;2023-10-08T12:54:08;21.98;;;5.20;;
28844;SDS011;15976;47.938;7.758;2023-10-08T12:56:38;30.30;;;5.75;;
28844;SDS011;15976;47.938;7.758;2023-10-08T12:59:12;22.75;;;5.45;;
28844;SDS011;15976;47.938;7.758;2023-10-08T13:01:50;28.23;;;5.88;;
28844;SDS011;15976;47.938;7.758;2023-10-08T13:04:18;21.70;;;5.47;;
28844;SDS011;15976;47.938;7.758;2023-10-08T13:06:54;19.70;;;5.55;;
28844;SDS011;15976;47.938;7.758;2023-10-08T13:09:28;19.77;;;5.45;;
28844;SDS011;15976;47.938;7.758;2023-10-08T13:11:58;16.40;;;5.40;;
28844;SDS011;15976;47.938;7.758;2023-10-08T13:14:28;21.90;;;5.57;;
28844;SDS011;15976;47.938;7.758;2023-10-08T13:16:55;17.95;;;4.80;;
28844;SDS011;15976;47.938;7.758;2023-10-08T13:19:22;22.40;;;5.47;;
28844;SDS011;15976;47.938;7.758;2023-10-08T13:21:50;22.58;;;5.50;;
28844;SDS011;15976;47.938;7.758;2023-10-08T13:24:19;21.63;;;5.47;;
28844;SDS011;15976;47.938;7.758;2023-10-08T13:26:50;28.50;;;5.20;;
28844;SDS011;15976;47.938;7.758;2023-10-08T13:29:18;25.42;;;5.75;;
28844;SDS011;15976;47.938;7.758;2023-10-08T13:31:45;22.42;;;5.55;;
28844;SDS011;15976;47.938;7.758;2023-10-08T13:34:13;21.60;;;5.30;;
28844;SDS011;15976;47.938;7.758;2023-10-08T13:36:43;22.60;;;5.60;;
28844;SDS011;15976;47.938;7.758;2023-10-08T13:39:14;23.55;;;5.38;;
28844;SDS011;15976;47.938;7.758;2023-10-08T13:41:50;21.05;;;5.93;;
28844;SDS011;15976;47.938;7.758;2023-10-08T13:44:22;18.85;;;4.93;;
28844;SDS011;15976;47.938;7.758;2023-10-08T13:46:56;24.60;;;5.40;;
28844;SDS011;15976;47.938;7.758;2023-10-08T13:49:26;27.58;;;4.88;;
28844;SDS011;15976;47.938;7.758;2023-10-08T13:51:53;19.90;;;4.72;;
28844;SDS011;15976;47.938;7.758;2023-10-08T13:54:23;25.92;;;5.55;;
28844;SDS011;15976;47.938;7.758;2023-10-08T13:56:56;21.33;;;4.78;;
28844;SDS011;15976;47.938;7.758;2023-10-08T13:59:26;23.63;;;5.50;;
28844;SDS011;15976;47.938;7.758;2023-10-08T14:02:00;25.08;;;5.35;;
28844;SDS011;15976;47.938;7.758;2023-10-08T14:04:42;24.23;;;5.50;;
28844;SDS011;15976;47.938;7.758;2023-10-08T14:07:13;25.73;;;6.10;;
28844;SDS011;15976;47.938;7.758;2023-10-08T14:09:45;26.10;;;5.85;;
28844;SDS011;15976;47.938;7.758;2023-10-08T14:12:23;24.33;;;5.50;;
28844;SDS011;15976;47.938;7.758;2023-10-08T14:15:06;26.17;;;5.95;;
28844;SDS011;15976;47.938;7.758;2023-10-08T14:17:44;27.85;;;5.80;;
28844;SDS011;15976;47.938;7.758;2023-10-08T14:20:16;24.42;;;5.47;;
28844;SDS011;15976;47.938;7.758;2023-10-08T14:22:50;24.38;;;5.57;;
28844;SDS011;15976;47.938;7.758;2023-10-08T14:25:26;24.05;;;5.40;;
28844;SDS011;15976;47.938;7.758;2023-10-08T14:27:56;32.95;;;6.22;;
28844;SDS011;15976;47.938;7.758;2023-10-08T14:30:32;23.35;;;5.85;;
28844;SDS011;15976;47.938;7.758;2023-10-08T14:33:08;25.48;;;5.70;;
28844;SDS011;15976;47.938;7.758;2023-10-08T14:35:41;26.17;;;5.45;;
28844;SDS011;15976;47.938;7.758;2023-10-08T14:38:43;34.83;;;6.25;;
28844;SDS011;15976;47.938;7.758;2023-10-08T14:41:32;23.35;;;5.53;;
28844;SDS011;15976;47.938;7.758;2023-10-08T14:44:18;29.50;;;5.78;;
28844;SDS011;15976;47.938;7.758;2023-10-08T14:46:50;26.52;;;6.07;;
28844;SDS011;15976;47.938;7.758;2023-10-08T14:49:23;27.73;;;5.97;;
28844;SDS011;15976;47.938;7.758;2023-10-08T14:51:52;21.52;;;5.90;;
28844;SDS011;15976;47.938;7.758;2023-10-08T14:54:21;27.70;;;5.82;;
28844;SDS011;15976;47.938;7.758;2023-10-08T14:56:51;28.60;;;5.32;;
28844;SDS011;15976;47.938;7.758;2023-10-08T14:59:19;20.08;;;5.40;;
28844;SDS011;15976;47.938;7.758;2023-10-08T15:01:48;28.75;;;5.68;;
28844;SDS011;15976;47.938;7.758;2023-10-08T15:04:16;21.23;;;5.72;;
28844;SDS011;15976;47.938;7.758;2023-10-08T15:06:45;24.35;;;5.63;;
28844;SDS011;15976;47.938;7.758;2023-10-08T15:09:12;26.67;;;6.20;;
28844;SDS011;15976;47.938;7.758;2023-10-08T15:11:47;25.17;;;5.90;;
28844;SDS011;15976;47.938;7.758;2023-10-08T15:14:15;22.98;;;6.40;;
28844;SDS011;15976;47.938;7.758;2023-10-08T15:16:42;36.22;;;6.78;;
28844;SDS011;15976;47.938;7.758;2023-10-08T15:19:10;31.00;;;5.80;;
28844;SDS011;15976;47.938;7.758;2023-10-08T15:21:38;32.88;;;6.35;;
28844;SDS011;15976;47.938;7.758;2023-10-08T15:24:06;31.48;;;6.15;;
28844;SDS011;15976;47.938;7.758;2023-10-08T15:26:38;26.75;;;5.65;;
28844;SDS011;15976;47.938;7.758;2023-10-08T15:29:08;25.63;;;5.90;;
28844;SDS011;15976;47.938;7.758;2023-10-08T15:31:36;24.10;;;6.03;;
28844;SDS011;15976;47.938;7.758;2023-10-08T15:34:03;32.90;;;6.07;;
28844;SDS011;15976;47.938;7.758;2023-10-08T15:36:31;22.20;;;5.78;;
28844;SDS011;15976;47.938;7.758;2023-10-08T15:38:58;31.13;;;6.25;;
28844;SDS011;15976;47.938;7.758;2023-10-08T15:41:28;24.92;;;6.43;;
28844;SDS011;15976;47.938;7.758;2023-10-08T15:43:55;28.40;;;6.40;;
28844;SDS011;15976;47.938;7.758;2023-10-08T15:46:25;28.80;;;5.72;;
28844;SDS011;15976;47.938;7.758;2023-10-08T15:48:52;24.15;;;5.53;;
28844;SDS011;15976;47.938;7.758;2023-10-08T15:51:20;36.22;;;6.22;;
28844;SDS011;15976;47.938;7.758;2023-10-08T15:53:47;22.08;;;5.18;;
28844;SDS011;15976;47.938;7.758;2023-10-08T15:56:14;27.92;;;5.97;;
28844;SDS011;15976;47.938;7.758;2023-10-08T15:58:41;26.75;;;6.53;;
28844;SDS011;15976;47.938;7.758;2023-10-08T16:01:08;36.85;;;6.43;;
28844;SDS011;15976;47.938;7.758;2023-10-08T16:03:38;27.75;;;6.25;;
28844;SDS011;15976;47.938;7.758;2023-10-08T16:06:06;27.10;;;6.47;;
28844;SDS011;15976;47.938;7.758;2023-10-08T16:08:33;38.50;;;7.63;;
28844;SDS011;15976;47.938;7.758;2023-10-08T16:11:00;33.85;;;7.00;;
28844;SDS011;15976;47.938;7.758;2023-10-08T16:13:27;28.02;;;6.65;;
28844;SDS011;15976;47.938;7.758;2023-10-08T16:15:54;34.00;;;6.90;;
28844;SDS011;15976;47.938;7.758;2023-10-08T16:18:22;32.33;;;6.50;;
28844;SDS011;15976;47.938;7.758;2023-10-08T16:20:49;31.45;;;6.40;;
28844;SDS011;15976;47.938;7.758;2023-10-08T16:23:16;30.70;;;6.75;;
28844;SDS011;15976;47.938;7.758;2023-10-08T16:25:44;38.67;;;7.18;;
28844;SDS011;15976;47.938;7.758;2023-10-08T16:31:57;30.98;;;6.70;;
28844;SDS011;15976;47.938;7.758;2023-10-08T16:34:25;39.00;;;7.28;;
28844;SDS011;15976;47.938;7.758;2023-10-08T16:36:54;33.92;;;6.45;;
28844;SDS011;15976;47.938;7.758;2023-10-08T16:39:21;28.65;;;6.07;;
28844;SDS011;15976;47.938;7.758;2023-10-08T16:41:51;33.72;;;6.90;;
28844;SDS011;15976;47.938;7.758;2023-10-08T16:44:22;29.80;;;6.80;;
28844;SDS011;15976;47.938;7.758;2023-10-08T16:46:51;29.77;;;6.15;;
28844;SDS011;15976;47.938;7.758;2023-10-08T16:49:19;36.80;;;7.15;;
28844;SDS011;15976;47.938;7.758;2023-10-08T16:51:48;37.47;;;8.00;;
28844;SDS011;15976;47.938;7.758;2023-10-08T16:58:35;41.40;;;6.65;;
28844;SDS011;15976;47.938;7.758;2023-10-08T17:04:52;29.75;;;7.38;;
28844;SDS011;15976;47.938;7.758;2023-10-08T17:07:20;36.08;;;7.72;;
28844;SDS011;15976;47.938;7.758;2023-10-08T17:09:49;36.47;;;8.23;;
28844;SDS011;15976;47.938;7.758;2023-10-08T17:12:18;25.60;;;7.03;;
28844;SDS011;15976;47.938;7.758;2023-10-08T17:14:46;37.88;;;7.28;;
28844;SDS011;15976;47.938;7.758;2023-10-08T17:17:14;29.10;;;7.22;;
28844;SDS011;15976;47.938;7.758;2023-10-08T17:19:41;28.25;;;7.00;;
28844;SDS011;15976;47.938;7.758;2023-10-08T17:25:04;32.90;;;7.03;;
28844;SDS011;15976;47.938;7.758;2023-10-08T17:27:33;28.73;;;7.43;;
28844;SDS011;15976;47.938;7.758;2023-10-08T17:30:02;36.17;;;8.05;;
28844;SDS011;15976;47.938;7.758;2023-10-08T17:32:33;39.63;;;6.75;;
28844;SDS011;15976;47.938;7.758;2023-10-08T17:38:32;34.97;;;7.07;;
28844;SDS011;15976;47.938;7.758;2023-10-08T17:40:59;37.33;;;7.07;;
28844;SDS011;15976;47.938;7.758;2023-10-08T17:43:29;35.78;;;6.75;;
28844;SDS011;15976;47.938;7.758;2023-10-08T17:45:56;31.13;;;6.45;;
28844;SDS011;15976;47.938;7.758;2023-10-08T17:48:23;35.55;;;6.63;;
28844;SDS011;15976;47.938;7.758;2023-10-08T17:50:51;23.90;;;6.10;;
28844;SDS011;15976;47.938;7.758;2023-10-08T17:53:18;33.58;;;6.38;;
28844;SDS011;15976;47.938;7.758;2023-10-08T17:55:48;27.15;;;5.80;;
28844;SDS011;15976;47.938;7.758;2023-10-08T17:58:15;24.48;;;6.03;;
28844;SDS011;15976;47.938;7.758;2023-10-08T18:00:42;32.80;;;6.07;;
28844;SDS011;15976;47.938;7.758;2023-10-08T18:03:10;29.70;;;6.30;;
28844;SDS011;15976;47.938;7.758;2023-10-08T18:05:38;26.90;;;6.47;;
28844;SDS011;15976;47.938;7.758;2023-10-08T18:08:05;33.67;;;6.95;;
28844;SDS011;15976;47.938;7.758;2023-10-08T18:10:33;28.60;;;6.32;;
28844;SDS011;15976;47.938;7.758;2023-10-08T18:13:02;24.25;;;6.03;;
28844;SDS011;15976;47.938;7.758;2023-10-08T18:15:29;27.52;;;5.85;;
28844;SDS011;15976;47.938;7.758;2023-10-08T18:17:59;28.95;;;6.55;;
28844;SDS011;15976;47.938;7.758;2023-10-08T18:20:27;26.00;;;6.78;;
28844;SDS011;15976;47.938;7.758;2023-10-08T18:23:02;30.85;;;6.22;;
28844;SDS011;15976;47.938;7.758;2023-10-08T18:25:30;28.10;;;6.35;;
28844;SDS011;15976;47.938;7.758;2023-10-08T18:27:58;34.83;;;6.20;;
28844;SDS011;15976;47.938;7.758;2023-10-08T18:30:26;25.80;;;6.03;;
28844;SDS011;15976;47.938;7.758;2023-10-08T18:32:53;29.85;;;6.28;;
28844;SDS011;15976;47.938;7.758;2023-10-08T18:35:21;29.38;;;6.50;;
28844;SDS011;15976;47.938;7.758;2023-10-08T18:37:49;29.25;;;5.80;;
28844;SDS011;15976;47.938;7.758;2023-10-08T18:40:22;25.52;;;6.45;;
28844;SDS011;15976;47.938;7.758;2023-10-08T18:42:50;27.75;;;6.32;;
28844;SDS011;15976;47.938;7.758;2023-10-08T18:45:17;22.35;;;5.47;;
28844;SDS011;15976;47.938;7.758;2023-10-08T18:47:45;29.58;;;6.45;;
28844;SDS011;15976;47.938;7.758;2023-10-08T18:50:12;29.05;;;5.63;;
28844;SDS011;15976;47.938;7.758;2023-10-08T18:52:42;25.20;;;5.35;;
28844;SDS011;15976;47.938;7.758;2023-10-08T18:55:10;31.60;;;6.65;;
28844;SDS011;15976;47.938;7.758;2023-10-08T18:57:39;24.60;;;6.10;;
28844;SDS011;15976;47.938;7.758;2023-10-08T19:00:08;28.95;;;5.88;;
28844;SDS011;15976;47.938;7.758;2023-10-08T19:02:38;27.15;;;6.75;;
28844;SDS011;15976;47.938;7.758;2023-10-08T19:05:06;26.05;;;6.28;;
28844;SDS011;15976;47.938;7.758;2023-10-08T19:07:35;26.70;;;6.00;;
28844;SDS011;15976;47.938;7.758;2023-10-08T19:10:03;27.67;;;6.43;;
28844;SDS011;15976;47.938;7.758;2023-10-08T19:12:31;25.92;;;5.30;;
28844;SDS011;15976;47.938;7.758;2023-10-08T19:14:58;24.45;;;6.95;;
28844;SDS011;15976;47.938;7.758;2023-10-08T19:17:26;24.65;;;6.22;;
28844;SDS011;15976;47.938;7.758;2023-10-08T19:19:54;25.60;;;6.10;;
28844;SDS011;15976;47.938;7.758;2023-10-08T19:22:21;28.77;;;7.40;;
28844;SDS011;15976;47.938;7.758;2023-10-08T19:24:48;30.20;;;8.00;;
28844;SDS011;15976;47.938;7.758;2023-10-08T19:27:15;22.65;;;6.47;;
28844;SDS011;15976;47.938;7.758;2023-10-08T19:29:45;32.33;;;5.85;;
28844;SDS011;15976;47.938;7.758;2023-10-08T19:32:12;22.98;;;5.72;;
28844;SDS011;15976;47.938;7.758;2023-10-08T19:34:41;18.25;;;4.82;;
28844;SDS011;15976;47.938;7.758;2023-10-08T19:37:08;18.77;;;5.47;;
28844;SDS011;15976;47.938;7.758;2023-10-08T19:39:35;25.58;;;5.53;;
28844;SDS011;15976;47.938;7.758;2023-10-08T19:42:02;24.27;;;6.22;;
28844;SDS011;15976;47.938;7.758;2023-10-08T19:44:30;26.00;;;6.95;;
28844;SDS011;15976;47.938;7.758;2023-10-08T19:46:58;22.75;;;6.68;;
28844;SDS011;15976;47.938;7.758;2023-10-08T19:49:27;31.55;;;6.18;;
28844;SDS011;15976;47.938;7.758;2023-10-08T19:51:54;29.02;;;6.18;;
28844;SDS011;15976;47.938;7.758;2023-10-08T19:54:21;21.17;;;6.07;;
28844;SDS011;15976;47.938;7.758;2023-10-08T19:56:48;24.05;;;5.82;;
28844;SDS011;15976;47.938;7.758;2023-10-08T19:59:15;22.75;;;5.72;;
28844;SDS011;15976;47.938;7.758;2023-10-08T20:01:44;23.08;;;5.93;;
28844;SDS011;15976;47.938;7.758;2023-10-08T20:04:11;25.52;;;6.18;;
28844;SDS011;15976;47.938;7.758;2023-10-08T20:06:39;21.25;;;5.38;;
28844;SDS011;15976;47.938;7.758;2023-10-08T20:09:06;24.17;;;5.70;;
28844;SDS011;15976;47.938;7.758;2023-10-08T20:11:33;22.77;;;5.40;;
28844;SDS011;15976;47.938;7.758;2023-10-08T20:14:01;24.98;;;6.10;;
28844;SDS011;15976;47.938;7.758;2023-10-08T20:16:28;24.83;;;5.78;;
28844;SDS011;15976;47.938;7.758;2023-10-08T20:18:57;27.70;;;6.00;;
28844;SDS011;15976;47.938;7.758;2023-10-08T20:21:24;31.15;;;6.75;;
28844;SDS011;15976;47.938;7.758;2023-10-08T20:23:52;27.80;;;5.90;;
28844;SDS011;15976;47.938;7.758;2023-10-08T20:26:20;20.38;;;5.72;;
28844;SDS011;15976;47.938;7.758;2023-10-08T20:28:50;33.10;;;6.50;;
28844;SDS011;15976;47.938;7.758;2023-10-08T20:31:18;26.65;;;5.95;;
28844;SDS011;15976;47.938;7.758;2023-10-08T20:33:47;19.20;;;6.00;;
28844;SDS011;15976;47.938;7.758;2023-10-08T20:36:16;27.55;;;5.75;;
28844;SDS011;15976;47.938;7.758;2023-10-08T20:38:46;24.15;;;5.65;;
28844;SDS011;15976;47.938;7.758;2023-10-08T20:41:16;19.15;;;5.45;;
28844;SDS011;15976;47.938;7.758;2023-10-08T20:43:44;26.95;;;6.25;;
28844;SDS011;15976;47.938;7.758;2023-10-08T20:46:14;23.33;;;5.55;;
28844;SDS011;15976;47.938;7.758;2023-10-08T20:48:43;24.75;;;6.68;;
28844;SDS011;15976;47.938;7.758;2023-10-08T20:51:11;24.60;;;6.80;;
28844;SDS011;15976;47.938;7.758;2023-10-08T20:53:39;27.23;;;6.60;;
28844;SDS011;15976;47.938;7.758;2023-10-08T20:56:06;20.92;;;5.85;;
28844;SDS011;15976;47.938;7.758;2023-10-08T20:58:33;23.40;;;6.90;;
28844;SDS011;15976;47.938;7.758;2023-10-08T21:01:00;20.13;;;5.97;;
28844;SDS011;15976;47.938;7.758;2023-10-08T21:03:28;34.50;;;6.03;;
28844;SDS011;15976;47.938;7.758;2023-10-08T21:05:55;23.23;;;5.45;;
28844;SDS011;15976;47.938;7.758;2023-10-08T21:08:23;22.95;;;4.80;;
28844;SDS011;15976;47.938;7.758;2023-10-08T21:10:51;19.25;;;5.28;;
28844;SDS011;15976;47.938;7.758;2023-10-08T21:13:22;19.75;;;4.88;;
28844;SDS011;15976;47.938;7.758;2023-10-08T21:15:51;31.00;;;6.05;;
28844;SDS011;15976;47.938;7.758;2023-10-08T21:18:18;20.67;;;5.93;;
28844;SDS011;15976;47.938;7.758;2023-10-08T21:20:47;18.63;;;5.55;;
28844;SDS011;15976;47.938;7.758;2023-10-08T21:23:15;21.83;;;5.65;;
28844;SDS011;15976;47.938;7.758;2023-10-08T21:25:42;20.92;;;5.28;;
28844;SDS011;15976;47.938;7.758;2023-10-08T21:28:12;21.75;;;5.03;;
28844;SDS011;15976;47.938;7.758;2023-10-08T21:30:40;21.98;;;5.88;;
28844;SDS011;15976;47.938;7.758;2023-10-08T21:33:07;19.38;;;5.65;;
28844;SDS011;15976;47.938;7.758;2023-10-08T21:35:36;20.88;;;4.72;;
28844;SDS011;15976;47.938;7.758;2023-10-08T21:38:05;27.30;;;5.65;;
28844;SDS011;15976;47.938;7.758;2023-10-08T21:40:35;17.95;;;5.35;;
28844;SDS011;15976;47.938;7.758;2023-10-08T21:43:03;19.67;;;5.15;;
28844;SDS011;15976;47.938;7.758;2023-10-08T21:45:30;24.83;;;5.50;;
28844;SDS011;15976;47.938;7.758;2023-10-08T21:47:58;26.48;;;5.00;;
28844;SDS011;15976;47.938;7.758;2023-10-08T21:50:27;26.20;;;5.93;;
28844;SDS011;15976;47.938;7.758;2023-10-08T21:52:54;19.15;;;6.10;;
28844;SDS011;15976;47.938;7.758;2023-10-08T21:55:23;23.73;;;6.55;;
28844;SDS011;15976;47.938;7.758;2023-10-08T21:57:51;22.65;;;5.47;;
28844;SDS011;15976;47.938;7.758;2023-10-08T22:00:20;18.17;;;5.65;;
28844;SDS011;15976;47.938;7.758;2023-10-08T22:02:55;20.52;;;5.60;;
28844;SDS011;15976;47.938;7.758;2023-10-08T22:05:25;20.08;;;5.50;;
28844;SDS011;15976;47.938;7.758;2023-10-08T22:07:58;25.60;;;5.57;;
28844;SDS011;15976;47.938;7.758;2023-10-08T22:10:25;21.40;;;5.07;;
28844;SDS011;15976;47.938;7.758;2023-10-08T22:12:55;19.27;;;5.28;;
28844;SDS011;15976;47.938;7.758;2023-10-08T22:15:25;16.80;;;4.63;;
28844;SDS011;15976;47.938;7.758;2023-10-08T22:17:55;20.08;;;5.38;;
28844;SDS011;15976;47.938;7.758;2023-10-08T22:20:28;22.33;;;4.93;;
28844;SDS011;15976;47.938;7.758;2023-10-08T22:23:11;18.98;;;6.13;;
28844;SDS011;15976;47.938;7.758;2023-10-08T22:25:48;28.00;;;6.05;;
28844;SDS011;15976;47.938;7.758;2023-10-08T22:28:18;23.73;;;5.63;;
28844;SDS011;15976;47.938;7.758;2023-10-08T22:30:47;20.70;;;5.43;;
28844;SDS011;15976;47.938;7.758;2023-10-08T22:33:22;23.42;;;6.10;;
28844;SDS011;15976;47.938;7.758;2023-10-08T22:36:13;21.02;;;4.82;;
28844;SDS011;15976;47.938;7.758;2023-10-08T22:38:50;19.25;;;5.28;;
28844;SDS011;15976;47.938;7.758;2023-10-08T22:41:17;20.63;;;5.35;;
28844;SDS011;15976;47.938;7.758;2023-10-08T22:43:45;22.42;;;5.78;;
28844;SDS011;15976;47.938;7.758;2023-10-08T22:46:16;21.42;;;5.55;;
28844;SDS011;15976;47.938;7.758;2023-10-08T22:48:51;26.55;;;5.50;;
28844;SDS011;15976;47.938;7.758;2023-10-08T22:51:20;26.58;;;5.57;;
28844;SDS011;15976;47.938;7.758;2023-10-08T22:53:53;16.08;;;5.03;;
28844;SDS011;15976;47.938;7.758;2023-10-08T22:56:22;19.77;;;5.55;;
28844;SDS011;15976;47.938;7.758;2023-10-08T22:58:51;25.70;;;5.40;;
28844;SDS011;15976;47.938;7.758;2023-10-08T23:01:20;27.80;;;5.07;;
28844;SDS011;15976;47.938;7.758;2023-10-08T23:03:49;22.08;;;4.93;;
28844;SDS011;15976;47.938;7.758;2023-10-08T23:06:19;26.08;;;6.32;;
28844;SDS011;15976;47.938;7.758;2023-10-08T23:08:48;20.70;;;4.95;;
28844;SDS011;15976;47.938;7.758;2023-10-08T23:11:16;20.08;;;4.65;;
28844;SDS011;15976;47.938;7.758;2023-10-08T23:13:43;24.55;;;5.57;;
28844;SDS011;15976;47.938;7.758;2023-10-08T23:16:13;22.83;;;5.35;;
28844;SDS011;15976;47.938;7.758;2023-10-08T23:18:46;21.38;;;5.70;;
28844;SDS011;15976;47.938;7.758;2023-10-08T23:21:17;17.43;;;4.90;;
28844;SDS011;15976;47.938;7.758;2023-10-08T23:23:47;22.80;;;5.97;;
28844;SDS011;15976;47.938;7.758;2023-10-08T23:26:15;26.15;;;6.03;;
28844;SDS011;15976;47.938;7.758;2023-10-08T23:28:43;23.98;;;5.45;;
28844;SDS011;15976;47.938;7.758;2023-10-08T23:31:11;20.98;;;5.90;;
28844;SDS011;15976;47.938;7.758;2023-10-08T23:33:40;23.80;;;5.63;;
28844;SDS011;15976;47.938;7.758;2023-10-08T23:36:14;23.50;;;5.97;;
28844;SDS011;15976;47.938;7.758;2023-10-08T23:38:43;22.77;;;5.65;;
28844;SDS011;15976;47.938;7.758;2023-10-08T23:41:19;29.27;;;6.05;;
28844;SDS011;15976;47.938;7.758;2023-10-08T23:43:58;19.05;;;4.97;;
28844;SDS011;15976;47.938;7.758;2023-10-08T23:46:30;21.20;;;5.80;;
28844;SDS011;15976;47.938;7.758;2023-10-08T23:48:58;24.80;;;5.80;;
28844;SDS011;15976;47.938;7.758;2023-10-08T23:51:51;19.77;;;5.22;;
28844;SDS011;15976;47.938;7.758;2023-10-08T23:54:19;21.98;;;5.57;;
28844;SDS011;15976;47.938;7.758;2023-10-08T23:56:55;20.80;;;5.35;;
28844;SDS011;15976;47.938;7.758;2023-10-08T23:59:26;21.05;;;5.78;;
